createdAt,value
2017-11-04T00:00:13.742Z,87.21
2017-11-04T00:00:54.301Z,87.49
2017-11-04T00:01:34.844Z,87.59
2017-11-04T00:02:15.390Z,87.68
2017-11-04T00:02:55.941Z,87.49
2017-11-04T00:03:36.487Z,87.59
2017-11-04T00:04:17.015Z,87.4
2017-11-04T00:04:57.567Z,87.78
2017-11-04T00:05:38.155Z,87.02
2017-11-04T00:06:18.690Z,87.11
2017-11-04T00:06:59.253Z,87.4
2017-11-04T00:07:39.762Z,87.59
2017-11-04T00:08:20.321Z,87.78
2017-11-04T00:09:00.871Z,87.68
2017-11-04T00:09:41.433Z,87.49
2017-11-04T00:10:21.958Z,87.49
2017-11-04T00:11:02.548Z,87.78
2017-11-04T00:11:43.063Z,88.16
2017-11-04T00:12:23.630Z,88.16
2017-11-04T00:13:04.179Z,88.54
2017-11-04T00:13:44.722Z,88.83
2017-11-04T00:14:25.286Z,89.12
2017-11-04T00:15:05.858Z,88.54
2017-11-04T00:15:46.388Z,88.64
2017-11-04T00:16:26.956Z,88.35
2017-11-04T00:17:07.503Z,88.73
2017-11-04T00:17:48.055Z,88.73
2017-11-04T00:18:28.611Z,88.54
2017-11-04T00:19:09.125Z,88.64
2017-11-04T00:19:49.674Z,88.73
2017-11-04T00:20:30.260Z,88.64
2017-11-04T00:21:10.815Z,88.92
2017-11-04T00:21:51.330Z,89.02
2017-11-04T00:22:31.883Z,88.54
2017-11-04T00:23:12.440Z,89.12
2017-11-04T00:23:52.965Z,88.73
2017-11-04T00:24:33.512Z,88.35
2017-11-04T00:25:14.097Z,88.64
2017-11-04T00:25:54.631Z,88.54
2017-11-04T00:26:35.212Z,87.78
2017-11-04T00:27:15.742Z,87.97
2017-11-04T00:27:56.308Z,87.97
2017-11-04T00:28:36.882Z,88.54
2017-11-04T00:29:17.419Z,88.64
2017-11-04T00:29:57.978Z,88.35
2017-11-04T00:30:38.528Z,88.54
2017-11-04T00:31:19.060Z,88.45
2017-11-04T00:31:59.630Z,88.45
2017-11-04T00:32:40.187Z,88.54
2017-11-04T00:33:20.723Z,88.35
2017-11-04T00:34:01.261Z,88.16
2017-11-04T00:34:41.828Z,87.49
2017-11-04T00:35:22.374Z,87.68
2017-11-04T00:36:02.891Z,87.49
2017-11-04T00:36:43.437Z,87.87
2017-11-04T00:37:23.991Z,88.16
2017-11-04T00:38:04.550Z,87.78
2017-11-04T00:38:45.109Z,88.16
2017-11-04T00:39:25.679Z,87.78
2017-11-04T00:40:06.227Z,87.87
2017-11-04T00:40:46.778Z,87.49
2017-11-04T00:41:27.315Z,87.78
2017-11-04T00:42:07.927Z,88.16
2017-11-04T00:42:48.418Z,87.68
2017-11-04T00:43:28.964Z,87.97
2017-11-04T00:44:09.532Z,88.31
2017-11-04T00:44:50.067Z,87.93
2017-11-04T00:45:30.632Z,88.5
2017-11-04T00:46:11.151Z,88.54
2017-11-04T00:46:51.727Z,88.16
2017-11-04T00:47:32.255Z,87.97
2017-11-04T00:48:12.813Z,87.78
2017-11-04T00:48:53.359Z,87.59
2017-11-04T00:49:33.923Z,87.54
2017-11-04T00:50:14.477Z,88.02
2017-11-04T00:50:55.019Z,88.5
2017-11-04T00:51:35.563Z,88.5
2017-11-04T00:52:16.134Z,88.5
2017-11-04T00:52:56.684Z,88.02
2017-11-04T00:53:37.244Z,87.83
2017-11-04T00:54:17.790Z,87.54
2017-11-04T00:54:58.326Z,87.87
2017-11-04T00:55:38.883Z,87.87
2017-11-04T00:56:19.447Z,87.68
2017-11-04T00:56:59.990Z,87.59
2017-11-04T00:57:40.547Z,87.68
2017-11-04T00:58:21.089Z,87.78
2017-11-04T00:59:01.638Z,87.59
2017-11-04T00:59:42.215Z,87.59
2017-11-04T01:00:22.741Z,87.68
2017-11-04T01:01:03.258Z,87.68
2017-11-04T01:01:43.814Z,87.49
2017-11-04T01:02:24.394Z,87.68
2017-11-04T01:03:04.943Z,87.68
2017-11-04T01:03:45.482Z,87.3
2017-11-04T01:04:26.040Z,87.11
2017-11-04T01:05:06.599Z,87.21
2017-11-04T01:05:47.158Z,87.21
2017-11-04T01:06:27.701Z,86.82
2017-11-04T01:07:08.252Z,87.21
2017-11-04T01:07:48.790Z,86.92
2017-11-04T01:08:29.336Z,87.3
2017-11-04T01:09:09.889Z,87.4
2017-11-04T01:09:50.445Z,87.21
2017-11-04T01:10:30.967Z,87.59
2017-11-04T01:11:11.556Z,87.93
2017-11-04T01:11:52.063Z,87.64
2017-11-04T01:12:32.563Z,88.02
2017-11-04T01:13:13.096Z,88.02
2017-11-04T01:13:53.626Z,88.12
2017-11-04T01:14:34.166Z,88.21
2017-11-04T01:15:14.717Z,87.93
2017-11-04T01:15:55.295Z,87.93
2017-11-04T01:16:35.870Z,88.31
2017-11-04T01:17:16.414Z,88.35
2017-11-04T01:17:56.971Z,88.12
2017-11-04T01:18:37.497Z,88.78
2017-11-04T01:19:18.062Z,87.93
2017-11-04T01:19:58.572Z,88.69
2017-11-04T01:20:39.129Z,88.4
2017-11-04T01:21:19.681Z,88.21
2017-11-04T01:22:00.236Z,88.88
2017-11-04T01:22:40.768Z,88.78
2017-11-04T01:23:21.291Z,88.5
2017-11-04T01:24:01.816Z,88.88
2017-11-04T01:24:42.392Z,88.4
2017-11-04T01:25:22.913Z,88.69
2017-11-04T01:26:03.444Z,88.4
2017-11-04T01:26:43.978Z,88.98
2017-11-04T01:27:24.538Z,88.4
2017-11-04T01:28:05.131Z,88.59
2017-11-04T01:28:45.705Z,88.4
2017-11-04T01:29:26.296Z,88.21
2017-11-04T01:30:06.836Z,88.4
2017-11-04T01:30:47.435Z,88.31
2017-11-04T01:31:28.021Z,88.12
2017-11-04T01:32:08.613Z,87.93
2017-11-04T01:32:49.137Z,88.12
2017-11-04T01:33:29.685Z,88.21
2017-11-04T01:34:10.261Z,87.87
2017-11-04T01:34:50.788Z,87.64
2017-11-04T01:35:31.330Z,87.87
2017-11-04T01:36:11.863Z,88.16
2017-11-04T01:36:52.391Z,87.4
2017-11-04T01:37:32.915Z,87.59
2017-11-04T01:38:13.444Z,87.68
2017-11-04T01:38:54.019Z,86.82
2017-11-04T01:39:34.551Z,87.3
2017-11-04T01:40:15.106Z,87.45
2017-11-04T01:40:55.648Z,88.07
2017-11-04T01:41:36.188Z,87.64
2017-11-04T01:42:16.745Z,88.31
2017-11-04T01:42:57.306Z,87.78
2017-11-04T01:43:37.832Z,87.59
2017-11-04T01:44:18.372Z,88.07
2017-11-04T01:44:58.883Z,87.68
2017-11-04T01:45:39.430Z,87.78
2017-11-04T01:46:19.976Z,87.21
2017-11-04T01:47:00.540Z,87.49
2017-11-04T01:47:41.099Z,87.59
2017-11-04T01:48:21.653Z,87.45
2017-11-04T01:49:02.197Z,87.64
2017-11-04T01:49:42.742Z,87.93
2017-11-04T01:50:23.316Z,87.64
2017-11-04T01:51:03.882Z,87.45
2017-11-04T01:51:44.429Z,87.3
2017-11-04T01:52:24.959Z,87.68
2017-11-04T01:53:05.500Z,87.49
2017-11-04T01:53:46.053Z,87.49
2017-11-04T01:54:26.625Z,87.68
2017-11-04T01:55:07.162Z,87.49
2017-11-04T01:55:47.717Z,87.49
2017-11-04T01:56:28.267Z,87.3
2017-11-04T01:57:08.816Z,87.49
2017-11-04T01:57:49.355Z,87.97
2017-11-04T01:58:29.906Z,87.4
2017-11-04T01:59:10.455Z,87.78
2017-11-04T01:59:51.004Z,87.68
2017-11-04T02:00:31.544Z,87.59
2017-11-04T02:01:12.105Z,87.68
2017-11-04T02:01:52.680Z,87.68
2017-11-04T02:02:33.211Z,87.45
2017-11-04T02:03:13.814Z,87.83
2017-11-04T02:03:55.083Z,87.74
2017-11-04T02:04:35.588Z,88.4
2017-11-04T02:05:16.144Z,88.31
2017-11-04T02:05:56.711Z,88.12
2017-11-04T02:06:37.251Z,88.02
2017-11-04T02:07:17.832Z,87.54
2017-11-04T02:07:58.361Z,87.93
2017-11-04T02:08:38.902Z,87.68
2017-11-04T02:09:19.470Z,87.93
2017-11-04T02:10:00.003Z,87.97
2017-11-04T02:10:40.566Z,87.87
2017-11-04T02:11:21.117Z,87.68
2017-11-04T02:12:01.658Z,87.54
2017-11-04T02:12:42.199Z,87.59
2017-11-04T02:13:22.754Z,87.21
2017-11-04T02:14:03.305Z,87.11
2017-11-04T02:14:43.892Z,87.21
2017-11-04T02:15:24.412Z,87.21
2017-11-04T02:16:04.994Z,87.02
2017-11-04T02:16:45.532Z,87.21
2017-11-04T02:17:26.089Z,87.4
2017-11-04T02:18:06.621Z,87.3
2017-11-04T02:18:47.194Z,86.44
2017-11-04T02:19:27.736Z,87.21
2017-11-04T02:20:08.268Z,86.54
2017-11-04T02:20:48.810Z,86.54
2017-11-04T02:21:29.364Z,86.73
2017-11-04T02:22:09.905Z,86.54
2017-11-04T02:22:50.472Z,86.54
2017-11-04T02:23:31.044Z,86.82
2017-11-04T02:24:11.591Z,86.54
2017-11-04T02:24:52.160Z,86.73
2017-11-04T02:25:32.687Z,87.21
2017-11-04T02:26:13.257Z,87.16
2017-11-04T02:26:53.793Z,87.49
2017-11-04T02:27:34.336Z,87.74
2017-11-04T02:28:14.881Z,87.54
2017-11-04T02:28:55.426Z,87.4
2017-11-04T02:29:35.966Z,87.3
2017-11-04T02:30:16.524Z,87.16
2017-11-04T02:30:57.073Z,87.54
2017-11-04T02:31:37.624Z,87.83
2017-11-04T02:32:18.164Z,87.68
2017-11-04T02:32:58.699Z,87.54
2017-11-04T02:33:39.224Z,87.07
2017-11-04T02:34:19.768Z,87.26
2017-11-04T02:35:00.336Z,87.78
2017-11-04T02:35:40.856Z,87.16
2017-11-04T02:36:21.407Z,86.73
2017-11-04T02:37:01.941Z,87.26
2017-11-04T02:37:42.480Z,87.16
2017-11-04T02:38:23.007Z,86.92
2017-11-04T02:39:03.535Z,87.02
2017-11-04T02:39:44.104Z,87.21
2017-11-04T02:40:24.689Z,87.49
2017-11-04T02:41:05.238Z,87.4
2017-11-04T02:41:45.794Z,87.4
2017-11-04T02:42:26.342Z,87.45
2017-11-04T02:43:06.883Z,87.16
2017-11-04T02:43:47.407Z,87.4
2017-11-04T02:44:27.970Z,87.21
2017-11-04T02:45:08.541Z,86.73
2017-11-04T02:45:49.070Z,86.54
2017-11-04T02:46:29.625Z,86.88
2017-11-04T02:47:10.165Z,86.63
2017-11-04T02:47:50.737Z,86.69
2017-11-04T02:48:31.330Z,86.98
2017-11-04T02:49:11.849Z,87.45
2017-11-04T02:49:52.404Z,87.45
2017-11-04T02:50:32.947Z,87.64
2017-11-04T02:51:13.484Z,87.35
2017-11-04T02:51:54.042Z,87.54
2017-11-04T02:52:34.549Z,88.02
2017-11-04T02:53:15.097Z,87.74
2017-11-04T02:53:55.638Z,87.16
2017-11-04T02:54:36.179Z,87.49
2017-11-04T02:55:16.709Z,87.16
2017-11-04T02:55:57.281Z,87.26
2017-11-04T02:56:37.817Z,87.3
2017-11-04T02:57:18.386Z,87.49
2017-11-04T02:57:58.907Z,87.54
2017-11-04T02:58:39.477Z,87.3
2017-11-04T02:59:20.034Z,87.11
2017-11-04T03:00:00.583Z,86.63
2017-11-04T03:00:41.144Z,86.82
2017-11-04T03:01:21.684Z,86.82
2017-11-04T03:02:02.241Z,86.92
2017-11-04T03:02:42.778Z,87.02
2017-11-04T03:03:23.321Z,86.82
2017-11-04T03:04:03.877Z,86.35
2017-11-04T03:04:44.420Z,86.63
2017-11-04T03:05:24.988Z,86.73
2017-11-04T03:06:05.519Z,86.63
2017-11-04T03:06:46.040Z,87.3
2017-11-04T03:07:26.602Z,87.4
2017-11-04T03:08:07.146Z,87.4
2017-11-04T03:08:47.707Z,87.21
2017-11-04T03:09:28.273Z,87.54
2017-11-04T03:10:08.824Z,88.02
2017-11-04T03:10:49.400Z,88.07
2017-11-04T03:11:29.947Z,87.87
2017-11-04T03:12:10.495Z,87.93
2017-11-04T03:12:51.043Z,88.69
2017-11-04T03:13:31.629Z,88.59
2017-11-04T03:14:12.141Z,88.5
2017-11-04T03:14:52.688Z,88.21
2017-11-04T03:15:33.222Z,88.78
2017-11-04T03:16:13.785Z,89.07
2017-11-04T03:16:54.375Z,89.07
2017-11-04T03:17:34.911Z,89.07
2017-11-04T03:18:15.447Z,88.78
2017-11-04T03:18:55.994Z,88.98
2017-11-04T03:19:36.547Z,89.26
2017-11-04T03:20:17.110Z,89.17
2017-11-04T03:20:57.651Z,88.88
2017-11-04T03:21:38.196Z,89.07
2017-11-04T03:22:18.750Z,88.4
2017-11-04T03:22:59.299Z,88.5
2017-11-04T03:23:39.846Z,88.88
2017-11-04T03:24:20.388Z,88.69
2017-11-04T03:25:00.934Z,88.5
2017-11-04T03:25:41.508Z,88.98
2017-11-04T03:26:22.050Z,88.98
2017-11-04T03:27:02.615Z,88.31
2017-11-04T03:27:43.169Z,88.64
2017-11-04T03:28:23.718Z,88.64
2017-11-04T03:29:04.254Z,88.69
2017-11-04T03:29:44.786Z,88.59
2017-11-04T03:30:25.311Z,88.78
2017-11-04T03:31:05.864Z,88.88
2017-11-04T03:31:46.362Z,88.88
2017-11-04T03:32:26.900Z,89.21
2017-11-04T03:33:07.433Z,88.59
2017-11-04T03:33:47.996Z,88.31
2017-11-04T03:34:28.539Z,88.4
2017-11-04T03:35:09.097Z,88.69
2017-11-04T03:35:49.632Z,88.59
2017-11-04T03:36:30.144Z,88.69
2017-11-04T03:37:10.701Z,88.88
2017-11-04T03:37:51.216Z,88.98
2017-11-04T03:38:31.774Z,88.69
2017-11-04T03:39:12.317Z,88.59
2017-11-04T03:39:52.858Z,88.4
2017-11-04T03:40:33.414Z,88.98
2017-11-04T03:41:13.970Z,89.07
2017-11-04T03:41:54.527Z,89.17
2017-11-04T03:42:35.046Z,89.36
2017-11-04T03:43:15.590Z,89.36
2017-11-04T03:43:56.114Z,89.45
2017-11-04T03:44:36.657Z,89.64
2017-11-04T03:45:17.216Z,89.54
2017-11-04T03:45:57.789Z,89.54
2017-11-04T03:46:38.334Z,90.12
2017-11-04T03:47:18.888Z,90.12
2017-11-04T03:47:59.418Z,89.36
2017-11-04T03:48:39.971Z,89.54
2017-11-04T03:49:20.520Z,89.36
2017-11-04T03:50:01.033Z,89.74
2017-11-04T03:50:41.572Z,89.36
2017-11-04T03:51:22.098Z,89.17
2017-11-04T03:52:02.634Z,89.26
2017-11-04T03:52:43.167Z,89.07
2017-11-04T03:53:23.716Z,88.78
2017-11-04T03:54:04.250Z,88.59
2017-11-04T03:54:44.796Z,88.69
2017-11-04T03:55:25.336Z,88.69
2017-11-04T03:56:05.878Z,88.69
2017-11-04T03:56:46.435Z,88.78
2017-11-04T03:57:26.980Z,88.98
2017-11-04T03:58:07.523Z,88.88
2017-11-04T03:58:48.072Z,88.98
2017-11-04T03:59:28.621Z,89.17
2017-11-04T04:00:09.167Z,89.36
2017-11-04T04:00:49.736Z,89.17
2017-11-04T04:01:30.268Z,89.54
2017-11-04T04:02:10.772Z,89.36
2017-11-04T04:02:51.325Z,89.54
2017-11-04T04:03:31.845Z,88.98
2017-11-04T04:04:12.426Z,89.74
2017-11-04T04:04:52.956Z,88.98
2017-11-04T04:05:33.535Z,88.88
2017-11-04T04:06:14.132Z,89.07
2017-11-04T04:06:54.675Z,88.78
2017-11-04T04:07:35.192Z,89.07
2017-11-04T04:08:15.741Z,88.78
2017-11-04T04:08:56.268Z,88.4
2017-11-04T04:09:36.811Z,88.78
2017-11-04T04:10:17.325Z,88.4
2017-11-04T04:10:57.886Z,88.4
2017-11-04T04:11:38.427Z,88.4
2017-11-04T04:12:18.975Z,88.4
2017-11-04T04:12:59.513Z,88.78
2017-11-04T04:13:40.065Z,89.07
2017-11-04T04:14:20.582Z,88.98
2017-11-04T04:15:01.110Z,88.69
2017-11-04T04:15:41.682Z,88.59
2017-11-04T04:16:22.234Z,88.59
2017-11-04T04:17:02.757Z,88.69
2017-11-04T04:17:43.303Z,88.88
2017-11-04T04:18:23.872Z,88.73
2017-11-04T04:19:04.410Z,88.78
2017-11-04T04:19:44.965Z,88.31
2017-11-04T04:20:25.532Z,87.97
2017-11-04T04:21:06.073Z,88.83
2017-11-04T04:21:46.604Z,88.35
2017-11-04T04:22:27.147Z,88.12
2017-11-04T04:23:07.714Z,88.02
2017-11-04T04:23:48.253Z,88.59
2017-11-04T04:24:28.832Z,88.78
2017-11-04T04:25:09.400Z,88.59
2017-11-04T04:25:49.921Z,88.88
2017-11-04T04:26:30.482Z,88.45
2017-11-04T04:27:11.053Z,88.45
2017-11-04T04:27:51.587Z,88.4
2017-11-04T04:28:32.134Z,88.31
2017-11-04T04:29:12.672Z,88.69
2017-11-04T04:29:53.959Z,88.83
2017-11-04T04:30:34.489Z,88.35
2017-11-04T04:31:15.045Z,88.64
2017-11-04T04:31:55.592Z,88.54
2017-11-04T04:32:36.148Z,88.64
2017-11-04T04:33:16.694Z,88.98
2017-11-04T04:33:57.219Z,89.74
2017-11-04T04:34:37.795Z,90.22
2017-11-04T04:35:18.300Z,90.22
2017-11-04T04:35:58.830Z,89.93
2017-11-04T04:36:39.380Z,90.03
2017-11-04T04:37:19.928Z,90.03
2017-11-04T04:38:00.471Z,90.12
2017-11-04T04:38:41.027Z,89.74
2017-11-04T04:39:21.553Z,89.45
2017-11-04T04:40:02.117Z,90.03
2017-11-04T04:40:42.646Z,89.59
2017-11-04T04:41:23.198Z,89.78
2017-11-04T04:42:03.750Z,89.88
2017-11-04T04:42:44.321Z,89.21
2017-11-04T04:43:24.864Z,89.74
2017-11-04T04:44:05.423Z,89.4
2017-11-04T04:44:45.970Z,89.59
2017-11-04T04:45:26.515Z,89.78
2017-11-04T04:46:07.069Z,89.12
2017-11-04T04:46:47.622Z,89.74
2017-11-04T04:47:28.154Z,89.02
2017-11-04T04:48:08.706Z,89.59
2017-11-04T04:48:49.244Z,89.5
2017-11-04T04:49:29.782Z,89.78
2017-11-04T04:50:10.341Z,89.97
2017-11-04T04:50:50.917Z,89.31
2017-11-04T04:51:31.474Z,89.21
2017-11-04T04:52:12.026Z,89.54
2017-11-04T04:52:52.556Z,89.97
2017-11-04T04:53:33.127Z,90.07
2017-11-04T04:54:13.678Z,89.97
2017-11-04T04:54:54.226Z,90.17
2017-11-04T04:55:34.784Z,90.41
2017-11-04T04:56:15.357Z,90.55
2017-11-04T04:56:55.856Z,90.73
2017-11-04T04:57:36.430Z,90.79
2017-11-04T04:58:16.957Z,90.59
2017-11-04T04:58:57.497Z,90.69
2017-11-04T04:59:38.034Z,90.88
2017-11-04T05:00:18.575Z,90.88
2017-11-04T05:00:59.153Z,90.73
2017-11-04T05:01:39.664Z,89.88
2017-11-04T05:02:20.216Z,90.12
2017-11-04T05:03:00.776Z,89.93
2017-11-04T05:03:41.354Z,89.97
2017-11-04T05:04:21.866Z,90.07
2017-11-04T05:05:02.413Z,90.22
2017-11-04T05:05:42.981Z,90.07
2017-11-04T05:06:23.516Z,89.69
2017-11-04T05:07:04.041Z,89.78
2017-11-04T05:07:44.589Z,90.22
2017-11-04T05:08:25.151Z,90.26
2017-11-04T05:09:05.713Z,90.36
2017-11-04T05:09:46.283Z,90.45
2017-11-04T05:10:26.829Z,90.55
2017-11-04T05:11:07.387Z,90.55
2017-11-04T05:11:47.938Z,90.26
2017-11-04T05:12:28.493Z,90.22
2017-11-04T05:13:09.031Z,89.97
2017-11-04T05:13:49.578Z,90.36
2017-11-04T05:14:30.164Z,90.07
2017-11-04T05:15:10.677Z,90.36
2017-11-04T05:15:51.263Z,90.26
2017-11-04T05:16:31.858Z,90.55
2017-11-04T05:17:12.414Z,90.45
2017-11-04T05:17:52.961Z,90.17
2017-11-04T05:18:33.509Z,90.07
2017-11-04T05:19:14.059Z,90.07
2017-11-04T05:19:54.606Z,90.07
2017-11-04T05:20:35.164Z,89.93
2017-11-04T05:21:15.703Z,91.07
2017-11-04T05:21:56.255Z,90.45
2017-11-04T05:22:36.789Z,90.03
2017-11-04T05:23:17.336Z,90.07
2017-11-04T05:23:57.907Z,90.5
2017-11-04T05:24:38.456Z,90.79
2017-11-04T05:25:18.980Z,90.69
2017-11-04T05:25:59.499Z,90.69
2017-11-04T05:26:40.050Z,91.07
2017-11-04T05:27:20.601Z,91.07
2017-11-04T05:28:01.129Z,91.27
2017-11-04T05:28:41.655Z,90.69
2017-11-04T05:29:22.204Z,90.83
2017-11-04T05:30:02.756Z,90.59
2017-11-04T05:30:43.305Z,90.55
2017-11-04T05:31:23.837Z,91.07
2017-11-04T05:32:04.383Z,89.83
2017-11-04T05:32:44.924Z,90.22
2017-11-04T05:33:25.497Z,90.12
2017-11-04T05:34:06.058Z,90.59
2017-11-04T05:34:46.654Z,90.12
2017-11-04T05:35:27.188Z,90.26
2017-11-04T05:36:07.750Z,90.79
2017-11-04T05:36:48.279Z,90.69
2017-11-04T05:37:28.815Z,89.83
2017-11-04T05:38:09.360Z,89.93
2017-11-04T05:38:49.918Z,90.5
2017-11-04T05:39:30.472Z,90.79
2017-11-04T05:40:11.019Z,90.31
2017-11-04T05:40:51.568Z,90.5
2017-11-04T05:41:32.138Z,89.97
2017-11-04T05:42:12.697Z,90.36
2017-11-04T05:42:53.239Z,90.07
2017-11-04T05:43:33.826Z,89.97
2017-11-04T05:44:14.354Z,90.17
2017-11-04T05:44:54.896Z,89.88
2017-11-04T05:45:35.450Z,89.97
2017-11-04T05:46:16.007Z,89.78
2017-11-04T05:46:56.544Z,89.4
2017-11-04T05:47:37.089Z,89.59
2017-11-04T05:48:17.657Z,89.4
2017-11-04T05:48:58.187Z,89.59
2017-11-04T05:49:38.815Z,89.59
2017-11-04T05:50:19.354Z,89.69
2017-11-04T05:50:59.918Z,89.59
2017-11-04T05:51:40.424Z,89.59
2017-11-04T05:52:20.969Z,89.59
2017-11-04T05:53:01.540Z,89.5
2017-11-04T05:53:42.051Z,89.4
2017-11-04T05:54:22.586Z,89.78
2017-11-04T05:55:03.186Z,89.59
2017-11-04T05:55:43.691Z,89.5
2017-11-04T05:56:24.254Z,90.17
2017-11-04T05:57:04.797Z,89.4
2017-11-04T05:57:45.354Z,89.4
2017-11-04T05:58:25.903Z,89.21
2017-11-04T05:59:06.431Z,89.69
2017-11-04T05:59:46.948Z,89.59
2017-11-04T06:00:27.484Z,89.21
2017-11-04T06:01:08.020Z,89.21
2017-11-04T06:01:48.559Z,89.31
2017-11-04T06:02:29.142Z,89.78
2017-11-04T06:03:09.660Z,89.88
2017-11-04T06:03:50.219Z,89.4
2017-11-04T06:04:30.762Z,90.07
2017-11-04T06:05:11.294Z,90.17
2017-11-04T06:05:51.851Z,90.79
2017-11-04T06:06:32.383Z,91.27
2017-11-04T06:07:12.902Z,91.17
2017-11-04T06:07:53.440Z,90.98
2017-11-04T06:08:34.055Z,92.03
2017-11-04T06:09:14.562Z,91.64
2017-11-04T06:09:55.178Z,91.36
2017-11-04T06:10:35.675Z,90.98
2017-11-04T06:11:16.252Z,90.98
2017-11-04T06:11:56.767Z,91.46
2017-11-04T06:12:37.315Z,91.21
2017-11-04T06:13:17.852Z,90.73
2017-11-04T06:13:58.382Z,90.83
2017-11-04T06:14:39.031Z,90.83
2017-11-04T06:15:19.575Z,91.21
2017-11-04T06:16:00.136Z,91.5
2017-11-04T06:16:40.673Z,91.41
2017-11-04T06:17:21.227Z,91.78
2017-11-04T06:18:01.779Z,91.21
2017-11-04T06:18:42.343Z,91.21
2017-11-04T06:19:22.881Z,91.41
2017-11-04T06:20:03.430Z,91.21
2017-11-04T06:20:43.993Z,91.31
2017-11-04T06:21:24.481Z,91.41
2017-11-04T06:22:05.029Z,91.31
2017-11-04T06:22:45.553Z,91.41
2017-11-04T06:23:26.087Z,91.12
2017-11-04T06:24:06.640Z,91.5
2017-11-04T06:24:47.157Z,91.5
2017-11-04T06:25:27.697Z,91.78
2017-11-04T06:26:08.249Z,91.69
2017-11-04T06:26:48.815Z,91.78
2017-11-04T06:27:29.637Z,91.41
2017-11-04T06:28:10.198Z,91.02
2017-11-04T06:28:50.773Z,91.21
2017-11-04T06:29:31.323Z,91.02
2017-11-04T06:30:11.890Z,90.83
2017-11-04T06:30:52.404Z,91.21
2017-11-04T06:31:32.966Z,91.12
2017-11-04T06:32:13.508Z,91.69
2017-11-04T06:32:54.082Z,90.93
2017-11-04T06:33:34.671Z,91.31
2017-11-04T06:34:15.127Z,91.21
2017-11-04T06:34:55.649Z,91.41
2017-11-04T06:35:36.146Z,91.41
2017-11-04T06:36:16.727Z,91.21
2017-11-04T06:36:57.260Z,91.02
2017-11-04T06:37:37.818Z,91.21
2017-11-04T06:38:18.317Z,90.93
2017-11-04T06:38:58.890Z,91.12
2017-11-04T06:39:39.459Z,91.12
2017-11-04T06:40:20.015Z,91.12
2017-11-04T06:41:00.554Z,91.41
2017-11-04T06:41:41.075Z,91.02
2017-11-04T06:42:21.586Z,91.41
2017-11-04T06:43:02.138Z,91.21
2017-11-04T06:43:42.754Z,91.31
2017-11-04T06:44:23.302Z,91.21
2017-11-04T06:45:03.802Z,91.41
2017-11-04T06:45:44.443Z,91.41
2017-11-04T06:46:25.097Z,91.31
2017-11-04T06:47:05.736Z,91.21
2017-11-04T06:47:46.216Z,91.12
2017-11-04T06:48:26.784Z,91.31
2017-11-04T06:49:07.293Z,91.12
2017-11-04T06:49:47.912Z,90.93
2017-11-04T06:50:28.466Z,91.12
2017-11-04T06:51:08.987Z,90.64
2017-11-04T06:51:49.511Z,90.83
2017-11-04T06:52:30.094Z,90.73
2017-11-04T06:53:10.642Z,90.73
2017-11-04T06:53:51.160Z,90.73
2017-11-04T06:54:31.717Z,90.83
2017-11-04T06:55:12.286Z,90.93
2017-11-04T06:55:52.810Z,91.02
2017-11-04T06:56:33.358Z,90.64
2017-11-04T06:57:13.854Z,90.45
2017-11-04T06:57:54.392Z,90.83
2017-11-04T06:58:34.922Z,90.73
2017-11-04T06:59:15.446Z,90.93
2017-11-04T06:59:55.940Z,90.93
2017-11-04T07:00:36.492Z,91.02
2017-11-04T07:01:17.024Z,90.73
2017-11-04T07:01:57.547Z,90.93
2017-11-04T07:02:38.100Z,90.93
2017-11-04T07:03:18.609Z,90.73
2017-11-04T07:03:59.158Z,91.02
2017-11-04T07:04:39.882Z,90.83
2017-11-04T07:05:20.416Z,90.93
2017-11-04T07:06:00.968Z,90.88
2017-11-04T07:06:41.499Z,90.83
2017-11-04T07:07:22.073Z,90.93
2017-11-04T07:08:02.607Z,90.64
2017-11-04T07:08:43.166Z,90.55
2017-11-04T07:09:23.703Z,90.83
2017-11-04T07:10:04.256Z,90.73
2017-11-04T07:10:44.776Z,91.41
2017-11-04T07:11:25.374Z,91.21
2017-11-04T07:12:05.841Z,91.12
2017-11-04T07:12:46.419Z,91.02
2017-11-04T07:13:26.996Z,90.93
2017-11-04T07:14:07.585Z,90.93
2017-11-04T07:14:48.111Z,90.83
2017-11-04T07:15:28.686Z,90.64
2017-11-04T07:16:09.280Z,91.12
2017-11-04T07:16:49.857Z,90.93
2017-11-04T07:17:30.356Z,90.97
2017-11-04T07:18:10.930Z,91.02
2017-11-04T07:18:51.428Z,91.31
2017-11-04T07:19:31.974Z,91.21
2017-11-04T07:20:12.494Z,91.31
2017-11-04T07:20:53.138Z,91.12
2017-11-04T07:21:33.687Z,91.12
2017-11-04T07:22:14.266Z,91.31
2017-11-04T07:22:54.742Z,91.12
2017-11-04T07:23:35.246Z,91.21
2017-11-04T07:24:15.789Z,91.5
2017-11-04T07:24:56.350Z,91.31
2017-11-04T07:25:36.910Z,91.31
2017-11-04T07:26:17.471Z,91.88
2017-11-04T07:26:57.985Z,91.88
2017-11-04T07:27:38.564Z,91.88
2017-11-04T07:28:19.074Z,91.78
2017-11-04T07:28:59.583Z,91.98
2017-11-04T07:29:40.163Z,92.26
2017-11-04T07:30:20.753Z,91.98
2017-11-04T07:31:01.333Z,91.78
2017-11-04T07:31:41.899Z,91.6
2017-11-04T07:32:22.417Z,91.5
2017-11-04T07:33:02.960Z,91.26
2017-11-04T07:33:43.660Z,91.36
2017-11-04T07:34:24.226Z,91.07
2017-11-04T07:35:04.712Z,91.36
2017-11-04T07:35:45.292Z,91.07
2017-11-04T07:36:25.847Z,90.88
2017-11-04T07:37:06.430Z,90.4
2017-11-04T07:37:47.038Z,90.21
2017-11-04T07:38:27.527Z,90.31
2017-11-04T07:39:08.050Z,90.4
2017-11-04T07:39:48.631Z,90.11
2017-11-04T07:40:29.188Z,90.21
2017-11-04T07:41:09.716Z,89.64
2017-11-04T07:41:50.239Z,89.73
2017-11-04T07:42:30.793Z,89.39
2017-11-04T07:43:11.366Z,89.3
2017-11-04T07:43:51.918Z,89.01
2017-11-04T07:44:32.415Z,89.01
2017-11-04T07:45:12.955Z,88.82
2017-11-04T07:45:53.561Z,89.11
2017-11-04T07:46:34.078Z,89.11
2017-11-04T07:47:14.654Z,88.82
2017-11-04T07:47:55.325Z,88.73
2017-11-04T07:48:35.891Z,88.92
2017-11-04T07:49:16.515Z,89.2
2017-11-04T07:49:57.718Z,88.54
2017-11-04T07:50:38.271Z,88.54
2017-11-04T07:51:18.789Z,88.44
2017-11-04T07:51:59.358Z,89.01
2017-11-04T07:52:39.908Z,88.44
2017-11-04T07:53:20.424Z,88.63
2017-11-04T07:54:00.929Z,88.54
2017-11-04T07:54:41.425Z,88.63
2017-11-04T07:55:21.951Z,88.92
2017-11-04T07:56:02.501Z,88.25
2017-11-04T07:56:43.053Z,88.73
2017-11-04T07:57:23.578Z,88.34
2017-11-04T07:58:04.109Z,88.25
2017-11-04T07:58:44.647Z,88.63
2017-11-04T07:59:25.158Z,88.92
2017-11-04T08:00:05.745Z,88.54
2017-11-04T08:00:46.299Z,88.44
2017-11-04T08:01:26.828Z,88.44
2017-11-04T08:02:07.360Z,88.82
2017-11-04T08:02:47.914Z,88.54
2017-11-04T08:03:28.509Z,88.44
2017-11-04T08:04:09.065Z,88.15
2017-11-04T08:04:49.628Z,88.54
2017-11-04T08:05:30.170Z,88.34
2017-11-04T08:06:10.813Z,88.73
2017-11-04T08:06:51.323Z,88.73
2017-11-04T08:07:31.902Z,89.01
2017-11-04T08:08:12.413Z,88.63
2017-11-04T08:08:52.995Z,88.54
2017-11-04T08:09:33.558Z,88.63
2017-11-04T08:10:14.122Z,88.73
2017-11-04T08:10:54.759Z,88.44
2017-11-04T08:11:35.271Z,88.54
2017-11-04T08:12:15.973Z,87.87
2017-11-04T08:12:56.450Z,88.73
2017-11-04T08:13:37.048Z,88.54
2017-11-04T08:14:17.580Z,88.63
2017-11-04T08:14:58.205Z,88.1
2017-11-04T08:15:38.717Z,88.06
2017-11-04T08:16:19.290Z,88.25
2017-11-04T08:16:59.837Z,88.25
2017-11-04T08:17:40.585Z,88.15
2017-11-04T08:18:21.130Z,88.25
2017-11-04T08:19:01.632Z,88.06
2017-11-04T08:19:42.233Z,87.96
2017-11-04T08:20:22.839Z,88.06
2017-11-04T08:21:03.376Z,87.96
2017-11-04T08:21:43.932Z,87.87
2017-11-04T08:22:24.444Z,87.87
2017-11-04T08:23:05.088Z,87.96
2017-11-04T08:23:45.597Z,87.96
2017-11-04T08:24:26.223Z,88.01
2017-11-04T08:25:06.725Z,88.1
2017-11-04T08:25:47.240Z,88.01
2017-11-04T08:26:27.791Z,88.01
2017-11-04T08:27:08.259Z,87.72
2017-11-04T08:27:49.162Z,87.72
2017-11-04T08:28:29.662Z,87.53
2017-11-04T08:29:10.354Z,87.72
2017-11-04T08:29:50.925Z,88.01
2017-11-04T08:30:31.452Z,87.91
2017-11-04T08:31:11.968Z,87.91
2017-11-04T08:31:52.592Z,88.1
2017-11-04T08:32:33.090Z,87.82
2017-11-04T08:33:13.665Z,87.72
2017-11-04T08:33:54.234Z,87.82
2017-11-04T08:34:34.765Z,87.62
2017-11-04T08:35:15.311Z,87.72
2017-11-04T08:35:55.870Z,87.34
2017-11-04T08:36:36.484Z,87.53
2017-11-04T08:37:16.995Z,87.34
2017-11-04T08:37:57.572Z,87.34
2017-11-04T08:38:38.102Z,87.05
2017-11-04T08:39:18.703Z,86.8
2017-11-04T08:39:59.228Z,87.43
2017-11-04T08:40:39.830Z,87.53
2017-11-04T08:41:20.419Z,87.48
2017-11-04T08:42:00.923Z,86.71
2017-11-04T08:42:41.515Z,86.61
2017-11-04T08:43:22.138Z,86.52
2017-11-04T08:44:02.691Z,86.9